Washingtonville, New York
Current Conditions -  °F | °C
As of 3:45 PM on Friday 24 Oct 2014 (Local Time) from KSWF Reporting Station
Broken Clouds Broken Clouds  
Wind Chill: 59°   Ceiling: 4000
Heat Index: 59°   Visibility: 20mi
Dew Point: 48°   Wind: 9mph
Humidity: 67%   Direction: 350°N
Pressure: 29.78"   Gusts: NA
Location:  41.43°N, 74.17°W
Report Text: KSWF 241945Z 35008KT 20SM BKN040 15/09 A2978
Loading
Personal Weather Stations






























Interactive Weather Map
Tropical Storm Tracking
New forecast layout! Learn more

10-Day Weather Forecast

Advertisements
Track Severe Weather on mobile